sensor_id;sensor_type;location;lat;lon;timestamp;P1;durP1;ratioP1;P2;durP2;ratioP2
38609;SDS011;24367;51.640;9.566;2022-07-18T00:02:10;1.70;;;0.80;;
38609;SDS011;24367;51.640;9.566;2022-07-18T00:04:37;3.20;;;1.00;;
38609;SDS011;24367;51.640;9.566;2022-07-18T00:07:05;4.95;;;1.50;;
38609;SDS011;24367;51.640;9.566;2022-07-18T00:09:31;11.05;;;1.10;;
38609;SDS011;24367;51.640;9.566;2022-07-18T00:11:58;3.25;;;0.88;;
38609;SDS011;24367;51.640;9.566;2022-07-18T00:14:24;3.78;;;1.40;;
38609;SDS011;24367;51.640;9.566;2022-07-18T00:16:51;4.13;;;0.95;;
38609;SDS011;24367;51.640;9.566;2022-07-18T00:19:17;2.03;;;1.00;;
38609;SDS011;24367;51.640;9.566;2022-07-18T00:21:44;4.90;;;0.90;;
38609;SDS011;24367;51.640;9.566;2022-07-18T00:24:12;2.92;;;1.10;;
38609;SDS011;24367;51.640;9.566;2022-07-18T00:26:38;3.35;;;1.13;;
38609;SDS011;24367;51.640;9.566;2022-07-18T00:29:05;2.53;;;0.98;;
38609;SDS011;24367;51.640;9.566;2022-07-18T00:31:31;1.92;;;0.80;;
38609;SDS011;24367;51.640;9.566;2022-07-18T00:33:58;3.22;;;0.82;;
38609;SDS011;24367;51.640;9.566;2022-07-18T00:36:25;2.97;;;1.20;;
38609;SDS011;24367;51.640;9.566;2022-07-18T00:38:51;4.70;;;1.30;;
38609;SDS011;24367;51.640;9.566;2022-07-18T00:41:19;2.90;;;1.20;;
38609;SDS011;24367;51.640;9.566;2022-07-18T00:43:46;2.30;;;0.98;;
38609;SDS011;24367;51.640;9.566;2022-07-18T00:46:13;1.98;;;1.08;;
38609;SDS011;24367;51.640;9.566;2022-07-18T00:48:40;3.75;;;1.17;;
38609;SDS011;24367;51.640;9.566;2022-07-18T00:51:08;3.53;;;1.27;;
38609;SDS011;24367;51.640;9.566;2022-07-18T00:53:35;2.85;;;0.88;;
38609;SDS011;24367;51.640;9.566;2022-07-18T00:56:02;1.67;;;0.70;;
38609;SDS011;24367;51.640;9.566;2022-07-18T00:58:31;2.45;;;0.77;;
38609;SDS011;24367;51.640;9.566;2022-07-18T01:00:58;2.22;;;1.13;;
38609;SDS011;24367;51.640;9.566;2022-07-18T01:03:42;1.80;;;0.80;;
38609;SDS011;24367;51.640;9.566;2022-07-18T01:06:08;4.43;;;1.27;;
38609;SDS011;24367;51.640;9.566;2022-07-18T01:08:35;1.50;;;0.75;;
38609;SDS011;24367;51.640;9.566;2022-07-18T01:11:03;2.30;;;1.10;;
38609;SDS011;24367;51.640;9.566;2022-07-18T01:13:31;1.50;;;0.70;;
38609;SDS011;24367;51.640;9.566;2022-07-18T01:15:57;7.10;;;1.20;;
38609;SDS011;24367;51.640;9.566;2022-07-18T01:18:24;2.20;;;1.00;;
38609;SDS011;24367;51.640;9.566;2022-07-18T01:20:52;2.45;;;1.10;;
38609;SDS011;24367;51.640;9.566;2022-07-18T01:23:18;2.60;;;0.90;;
38609;SDS011;24367;51.640;9.566;2022-07-18T01:25:45;1.90;;;0.90;;
38609;SDS011;24367;51.640;9.566;2022-07-18T01:28:11;2.35;;;0.93;;
38609;SDS011;24367;51.640;9.566;2022-07-18T01:30:38;2.17;;;1.00;;
38609;SDS011;24367;51.640;9.566;2022-07-18T01:33:04;2.00;;;0.98;;
38609;SDS011;24367;51.640;9.566;2022-07-18T01:35:31;2.22;;;1.10;;
38609;SDS011;24367;51.640;9.566;2022-07-18T01:38:00;2.83;;;1.10;;
38609;SDS011;24367;51.640;9.566;2022-07-18T01:40:27;2.20;;;0.95;;
38609;SDS011;24367;51.640;9.566;2022-07-18T01:42:54;1.98;;;1.02;;
38609;SDS011;24367;51.640;9.566;2022-07-18T01:45:20;1.88;;;0.90;;
38609;SDS011;24367;51.640;9.566;2022-07-18T01:47:47;2.05;;;1.02;;
38609;SDS011;24367;51.640;9.566;2022-07-18T01:50:14;3.95;;;1.20;;
38609;SDS011;24367;51.640;9.566;2022-07-18T01:52:41;2.85;;;1.20;;
38609;SDS011;24367;51.640;9.566;2022-07-18T01:55:09;1.77;;;0.80;;
38609;SDS011;24367;51.640;9.566;2022-07-18T01:57:36;2.67;;;1.10;;
38609;SDS011;24367;51.640;9.566;2022-07-18T02:00:03;1.77;;;0.90;;
38609;SDS011;24367;51.640;9.566;2022-07-18T02:02:31;3.13;;;1.20;;
38609;SDS011;24367;51.640;9.566;2022-07-18T02:04:58;1.75;;;1.00;;
38609;SDS011;24367;51.640;9.566;2022-07-18T02:07:29;1.45;;;0.90;;
38609;SDS011;24367;51.640;9.566;2022-07-18T02:09:57;1.60;;;0.98;;
38609;SDS011;24367;51.640;9.566;2022-07-18T02:12:25;1.95;;;0.82;;
38609;SDS011;24367;51.640;9.566;2022-07-18T02:14:52;2.97;;;0.80;;
38609;SDS011;24367;51.640;9.566;2022-07-18T02:17:18;2.35;;;0.93;;
38609;SDS011;24367;51.640;9.566;2022-07-18T02:19:45;2.38;;;1.10;;
38609;SDS011;24367;51.640;9.566;2022-07-18T02:22:12;2.53;;;1.10;;
38609;SDS011;24367;51.640;9.566;2022-07-18T02:24:38;2.65;;;0.90;;
38609;SDS011;24367;51.640;9.566;2022-07-18T02:27:05;2.00;;;0.70;;
38609;SDS011;24367;51.640;9.566;2022-07-18T02:29:32;2.10;;;0.82;;
38609;SDS011;24367;51.640;9.566;2022-07-18T02:31:59;1.85;;;0.90;;
38609;SDS011;24367;51.640;9.566;2022-07-18T02:34:25;2.47;;;0.98;;
38609;SDS011;24367;51.640;9.566;2022-07-18T02:36:52;1.95;;;0.95;;
38609;SDS011;24367;51.640;9.566;2022-07-18T02:39:18;2.13;;;1.17;;
38609;SDS011;24367;51.640;9.566;2022-07-18T02:41:45;1.58;;;1.00;;
38609;SDS011;24367;51.640;9.566;2022-07-18T02:44:12;2.72;;;0.90;;
38609;SDS011;24367;51.640;9.566;2022-07-18T02:46:41;2.20;;;0.80;;
38609;SDS011;24367;51.640;9.566;2022-07-18T02:49:07;3.15;;;0.98;;
38609;SDS011;24367;51.640;9.566;2022-07-18T02:51:34;2.47;;;0.93;;
38609;SDS011;24367;51.640;9.566;2022-07-18T02:54:01;1.95;;;0.98;;
38609;SDS011;24367;51.640;9.566;2022-07-18T02:56:27;1.80;;;0.90;;
38609;SDS011;24367;51.640;9.566;2022-07-18T02:58:54;1.80;;;1.02;;
38609;SDS011;24367;51.640;9.566;2022-07-18T03:01:20;2.33;;;0.73;;
38609;SDS011;24367;51.640;9.566;2022-07-18T03:03:48;1.38;;;0.80;;
38609;SDS011;24367;51.640;9.566;2022-07-18T03:06:14;1.75;;;0.85;;
38609;SDS011;24367;51.640;9.566;2022-07-18T03:08:41;2.33;;;1.02;;
38609;SDS011;24367;51.640;9.566;2022-07-18T03:11:07;2.13;;;1.10;;
38609;SDS011;24367;51.640;9.566;2022-07-18T03:13:34;3.10;;;1.30;;
38609;SDS011;24367;51.640;9.566;2022-07-18T03:16:00;2.30;;;0.95;;
38609;SDS011;24367;51.640;9.566;2022-07-18T03:18:27;2.60;;;0.98;;
38609;SDS011;24367;51.640;9.566;2022-07-18T03:20:54;1.58;;;0.90;;
38609;SDS011;24367;51.640;9.566;2022-07-18T03:23:21;3.38;;;1.20;;
38609;SDS011;24367;51.640;9.566;2022-07-18T03:25:47;3.20;;;0.90;;
38609;SDS011;24367;51.640;9.566;2022-07-18T03:28:14;2.67;;;0.90;;
38609;SDS011;24367;51.640;9.566;2022-07-18T03:30:40;2.08;;;0.90;;
38609;SDS011;24367;51.640;9.566;2022-07-18T03:33:07;3.88;;;1.33;;
38609;SDS011;24367;51.640;9.566;2022-07-18T03:35:34;2.20;;;1.05;;
38609;SDS011;24367;51.640;9.566;2022-07-18T03:38:02;1.85;;;0.80;;
38609;SDS011;24367;51.640;9.566;2022-07-18T03:40:29;2.55;;;0.90;;
38609;SDS011;24367;51.640;9.566;2022-07-18T03:42:55;2.22;;;1.05;;
38609;SDS011;24367;51.640;9.566;2022-07-18T03:45:22;2.67;;;1.10;;
38609;SDS011;24367;51.640;9.566;2022-07-18T03:47:48;1.42;;;0.88;;
38609;SDS011;24367;51.640;9.566;2022-07-18T03:50:14;2.35;;;1.15;;
38609;SDS011;24367;51.640;9.566;2022-07-18T03:52:41;1.65;;;1.00;;
38609;SDS011;24367;51.640;9.566;2022-07-18T03:55:09;2.03;;;0.95;;
38609;SDS011;24367;51.640;9.566;2022-07-18T03:57:35;3.20;;;1.40;;
38609;SDS011;24367;51.640;9.566;2022-07-18T04:00:02;2.30;;;1.10;;
38609;SDS011;24367;51.640;9.566;2022-07-18T04:02:37;1.75;;;0.82;;
38609;SDS011;24367;51.640;9.566;2022-07-18T04:05:04;2.28;;;1.10;;
38609;SDS011;24367;51.640;9.566;2022-07-18T04:07:32;1.77;;;0.90;;
38609;SDS011;24367;51.640;9.566;2022-07-18T04:09:58;1.35;;;0.90;;
38609;SDS011;24367;51.640;9.566;2022-07-18T04:12:26;1.95;;;0.80;;
38609;SDS011;24367;51.640;9.566;2022-07-18T04:14:52;2.25;;;1.20;;
38609;SDS011;24367;51.640;9.566;2022-07-18T04:17:19;1.83;;;1.10;;
38609;SDS011;24367;51.640;9.566;2022-07-18T04:19:45;2.90;;;1.10;;
38609;SDS011;24367;51.640;9.566;2022-07-18T04:22:12;3.10;;;1.35;;
38609;SDS011;24367;51.640;9.566;2022-07-18T04:24:39;2.00;;;1.00;;
38609;SDS011;24367;51.640;9.566;2022-07-18T04:27:05;1.80;;;1.00;;
38609;SDS011;24367;51.640;9.566;2022-07-18T04:29:33;2.80;;;1.00;;
38609;SDS011;24367;51.640;9.566;2022-07-18T04:32:01;2.13;;;1.25;;
38609;SDS011;24367;51.640;9.566;2022-07-18T04:34:28;2.28;;;0.90;;
38609;SDS011;24367;51.640;9.566;2022-07-18T04:36:54;1.95;;;0.90;;
38609;SDS011;24367;51.640;9.566;2022-07-18T04:39:21;1.83;;;1.00;;
38609;SDS011;24367;51.640;9.566;2022-07-18T04:41:47;2.40;;;1.00;;
38609;SDS011;24367;51.640;9.566;2022-07-18T04:44:14;2.63;;;1.30;;
38609;SDS011;24367;51.640;9.566;2022-07-18T04:46:41;3.55;;;1.08;;
38609;SDS011;24367;51.640;9.566;2022-07-18T04:49:08;2.85;;;1.00;;
38609;SDS011;24367;51.640;9.566;2022-07-18T04:51:34;2.90;;;1.10;;
38609;SDS011;24367;51.640;9.566;2022-07-18T04:54:01;4.10;;;1.02;;
38609;SDS011;24367;51.640;9.566;2022-07-18T04:56:27;2.97;;;1.10;;
38609;SDS011;24367;51.640;9.566;2022-07-18T04:58:54;1.98;;;1.00;;
38609;SDS011;24367;51.640;9.566;2022-07-18T05:01:20;3.38;;;1.00;;
38609;SDS011;24367;51.640;9.566;2022-07-18T05:03:48;3.67;;;1.33;;
38609;SDS011;24367;51.640;9.566;2022-07-18T05:06:14;2.33;;;1.17;;
38609;SDS011;24367;51.640;9.566;2022-07-18T05:08:41;3.50;;;1.27;;
38609;SDS011;24367;51.640;9.566;2022-07-18T05:11:07;2.20;;;1.10;;
38609;SDS011;24367;51.640;9.566;2022-07-18T05:13:34;2.58;;;1.00;;
38609;SDS011;24367;51.640;9.566;2022-07-18T05:16:00;2.60;;;1.05;;
38609;SDS011;24367;51.640;9.566;2022-07-18T05:18:27;3.15;;;1.23;;
38609;SDS011;24367;51.640;9.566;2022-07-18T05:20:54;2.47;;;1.02;;
38609;SDS011;24367;51.640;9.566;2022-07-18T05:23:21;2.80;;;1.17;;
38609;SDS011;24367;51.640;9.566;2022-07-18T05:25:49;2.22;;;1.20;;
38609;SDS011;24367;51.640;9.566;2022-07-18T05:28:16;2.38;;;0.90;;
38609;SDS011;24367;51.640;9.566;2022-07-18T05:30:42;2.28;;;1.20;;
38609;SDS011;24367;51.640;9.566;2022-07-18T05:33:09;2.33;;;1.10;;
38609;SDS011;24367;51.640;9.566;2022-07-18T05:35:35;2.85;;;0.98;;
38609;SDS011;24367;51.640;9.566;2022-07-18T05:38:03;3.17;;;1.05;;
38609;SDS011;24367;51.640;9.566;2022-07-18T05:40:29;3.65;;;1.25;;
38609;SDS011;24367;51.640;9.566;2022-07-18T05:42:56;1.75;;;1.00;;
38609;SDS011;24367;51.640;9.566;2022-07-18T05:45:25;2.15;;;1.00;;
38609;SDS011;24367;51.640;9.566;2022-07-18T05:47:51;3.05;;;1.30;;
38609;SDS011;24367;51.640;9.566;2022-07-18T05:50:18;2.45;;;1.27;;
38609;SDS011;24367;51.640;9.566;2022-07-18T05:52:44;1.60;;;0.80;;
38609;SDS011;24367;51.640;9.566;2022-07-18T05:55:12;2.33;;;1.02;;
38609;SDS011;24367;51.640;9.566;2022-07-18T05:57:39;3.58;;;1.20;;
38609;SDS011;24367;51.640;9.566;2022-07-18T06:00:06;2.50;;;1.15;;
38609;SDS011;24367;51.640;9.566;2022-07-18T06:02:35;2.97;;;1.20;;
38609;SDS011;24367;51.640;9.566;2022-07-18T06:05:02;2.60;;;1.02;;
38609;SDS011;24367;51.640;9.566;2022-07-18T06:07:29;2.17;;;0.93;;
38609;SDS011;24367;51.640;9.566;2022-07-18T06:09:55;2.65;;;1.20;;
38609;SDS011;24367;51.640;9.566;2022-07-18T06:12:23;2.17;;;1.00;;
38609;SDS011;24367;51.640;9.566;2022-07-18T06:14:49;2.08;;;1.15;;
38609;SDS011;24367;51.640;9.566;2022-07-18T06:17:17;2.30;;;0.90;;
38609;SDS011;24367;51.640;9.566;2022-07-18T06:19:43;2.88;;;1.30;;
38609;SDS011;24367;51.640;9.566;2022-07-18T06:22:10;2.10;;;0.90;;
38609;SDS011;24367;51.640;9.566;2022-07-18T06:24:36;2.38;;;1.40;;
38609;SDS011;24367;51.640;9.566;2022-07-18T06:27:03;2.75;;;1.20;;
38609;SDS011;24367;51.640;9.566;2022-07-18T06:29:31;1.65;;;0.93;;
38609;SDS011;24367;51.640;9.566;2022-07-18T06:31:57;2.15;;;0.98;;
38609;SDS011;24367;51.640;9.566;2022-07-18T06:34:24;2.15;;;1.10;;
38609;SDS011;24367;51.640;9.566;2022-07-18T06:36:50;2.63;;;1.10;;
38609;SDS011;24367;51.640;9.566;2022-07-18T06:39:17;2.38;;;0.80;;
38609;SDS011;24367;51.640;9.566;2022-07-18T06:41:43;2.15;;;1.00;;
38609;SDS011;24367;51.640;9.566;2022-07-18T06:44:12;1.85;;;0.90;;
38609;SDS011;24367;51.640;9.566;2022-07-18T06:46:40;3.40;;;0.90;;
38609;SDS011;24367;51.640;9.566;2022-07-18T06:49:06;1.35;;;0.88;;
38609;SDS011;24367;51.640;9.566;2022-07-18T06:51:33;2.13;;;1.15;;
38609;SDS011;24367;51.640;9.566;2022-07-18T06:54:00;2.38;;;0.93;;
38609;SDS011;24367;51.640;9.566;2022-07-18T06:56:26;2.17;;;1.00;;
38609;SDS011;24367;51.640;9.566;2022-07-18T06:58:53;1.30;;;0.70;;
38609;SDS011;24367;51.640;9.566;2022-07-18T07:01:20;2.03;;;1.05;;
38609;SDS011;24367;51.640;9.566;2022-07-18T07:03:47;1.77;;;1.15;;
38609;SDS011;24367;51.640;9.566;2022-07-18T07:06:14;1.10;;;0.70;;
38609;SDS011;24367;51.640;9.566;2022-07-18T07:08:41;1.80;;;1.20;;
38609;SDS011;24367;51.640;9.566;2022-07-18T07:11:08;2.58;;;1.08;;
38609;SDS011;24367;51.640;9.566;2022-07-18T07:13:35;3.35;;;1.27;;
38609;SDS011;24367;51.640;9.566;2022-07-18T07:16:01;2.78;;;1.08;;
38609;SDS011;24367;51.640;9.566;2022-07-18T07:18:28;2.22;;;1.20;;
38609;SDS011;24367;51.640;9.566;2022-07-18T07:20:56;2.13;;;0.90;;
38609;SDS011;24367;51.640;9.566;2022-07-18T07:23:22;3.03;;;0.93;;
38609;SDS011;24367;51.640;9.566;2022-07-18T07:25:49;1.63;;;0.98;;
38609;SDS011;24367;51.640;9.566;2022-07-18T07:28:15;2.15;;;1.25;;
38609;SDS011;24367;51.640;9.566;2022-07-18T07:30:43;1.88;;;1.33;;
38609;SDS011;24367;51.640;9.566;2022-07-18T07:33:10;1.65;;;0.82;;
38609;SDS011;24367;51.640;9.566;2022-07-18T07:35:36;2.17;;;1.00;;
38609;SDS011;24367;51.640;9.566;2022-07-18T07:38:04;2.85;;;1.20;;
38609;SDS011;24367;51.640;9.566;2022-07-18T07:40:30;2.65;;;1.38;;
38609;SDS011;24367;51.640;9.566;2022-07-18T07:43:06;3.10;;;1.30;;
38609;SDS011;24367;51.640;9.566;2022-07-18T07:45:34;5.70;;;1.33;;
38609;SDS011;24367;51.640;9.566;2022-07-18T07:48:01;3.40;;;0.95;;
38609;SDS011;24367;51.640;9.566;2022-07-18T07:50:28;5.28;;;1.27;;
38609;SDS011;24367;51.640;9.566;2022-07-18T07:52:55;8.40;;;1.50;;
38609;SDS011;24367;51.640;9.566;2022-07-18T07:55:23;4.18;;;1.52;;
38609;SDS011;24367;51.640;9.566;2022-07-18T07:57:50;3.30;;;1.15;;
38609;SDS011;24367;51.640;9.566;2022-07-18T08:00:17;4.15;;;1.20;;
38609;SDS011;24367;51.640;9.566;2022-07-18T08:02:54;3.95;;;1.30;;
38609;SDS011;24367;51.640;9.566;2022-07-18T08:05:21;5.80;;;1.60;;
38609;SDS011;24367;51.640;9.566;2022-07-18T08:07:48;3.72;;;1.48;;
38609;SDS011;24367;51.640;9.566;2022-07-18T08:10:15;3.83;;;1.33;;
38609;SDS011;24367;51.640;9.566;2022-07-18T08:12:43;5.05;;;1.27;;
38609;SDS011;24367;51.640;9.566;2022-07-18T08:15:09;3.63;;;1.58;;
38609;SDS011;24367;51.640;9.566;2022-07-18T08:17:36;4.32;;;1.27;;
38609;SDS011;24367;51.640;9.566;2022-07-18T08:20:03;3.08;;;1.10;;
38609;SDS011;24367;51.640;9.566;2022-07-18T08:22:30;4.97;;;1.27;;
38609;SDS011;24367;51.640;9.566;2022-07-18T08:24:56;4.22;;;1.40;;
38609;SDS011;24367;51.640;9.566;2022-07-18T08:27:23;4.07;;;1.77;;
38609;SDS011;24367;51.640;9.566;2022-07-18T08:29:50;4.40;;;1.38;;
38609;SDS011;24367;51.640;9.566;2022-07-18T08:32:17;3.67;;;1.48;;
38609;SDS011;24367;51.640;9.566;2022-07-18T08:34:43;4.15;;;1.20;;
38609;SDS011;24367;51.640;9.566;2022-07-18T08:37:10;5.38;;;1.42;;
38609;SDS011;24367;51.640;9.566;2022-07-18T08:39:36;4.82;;;1.33;;
38609;SDS011;24367;51.640;9.566;2022-07-18T08:42:02;6.20;;;1.95;;
38609;SDS011;24367;51.640;9.566;2022-07-18T08:44:29;3.10;;;1.08;;
38609;SDS011;24367;51.640;9.566;2022-07-18T08:46:57;7.00;;;1.63;;
38609;SDS011;24367;51.640;9.566;2022-07-18T08:49:24;5.60;;;1.35;;
38609;SDS011;24367;51.640;9.566;2022-07-18T08:51:50;4.20;;;1.08;;
38609;SDS011;24367;51.640;9.566;2022-07-18T08:54:17;5.00;;;1.30;;
38609;SDS011;24367;51.640;9.566;2022-07-18T08:56:43;4.40;;;1.40;;
38609;SDS011;24367;51.640;9.566;2022-07-18T08:59:10;3.80;;;1.45;;
38609;SDS011;24367;51.640;9.566;2022-07-18T09:01:36;6.18;;;1.50;;
38609;SDS011;24367;51.640;9.566;2022-07-18T09:04:04;4.55;;;1.30;;
38609;SDS011;24367;51.640;9.566;2022-07-18T09:06:46;5.65;;;1.48;;
38609;SDS011;24367;51.640;9.566;2022-07-18T09:09:14;5.10;;;1.38;;
38609;SDS011;24367;51.640;9.566;2022-07-18T09:11:50;4.60;;;1.35;;
38609;SDS011;24367;51.640;9.566;2022-07-18T09:14:30;4.05;;;1.80;;
38609;SDS011;24367;51.640;9.566;2022-07-18T09:17:08;4.55;;;1.75;;
38609;SDS011;24367;51.640;9.566;2022-07-18T09:19:37;4.18;;;1.40;;
38609;SDS011;24367;51.640;9.566;2022-07-18T09:22:12;3.45;;;1.30;;
38609;SDS011;24367;51.640;9.566;2022-07-18T09:24:48;5.55;;;1.38;;
38609;SDS011;24367;51.640;9.566;2022-07-18T09:27:22;5.28;;;1.92;;
38609;SDS011;24367;51.640;9.566;2022-07-18T09:29:56;3.17;;;1.33;;
38609;SDS011;24367;51.640;9.566;2022-07-18T09:32:33;3.25;;;1.33;;
38609;SDS011;24367;51.640;9.566;2022-07-18T09:35:05;5.28;;;1.42;;
38609;SDS011;24367;51.640;9.566;2022-07-18T09:37:32;6.72;;;1.38;;
38609;SDS011;24367;51.640;9.566;2022-07-18T09:40:13;4.07;;;1.30;;
38609;SDS011;24367;51.640;9.566;2022-07-18T09:42:41;4.20;;;1.10;;
38609;SDS011;24367;51.640;9.566;2022-07-18T09:45:07;4.10;;;1.52;;
38609;SDS011;24367;51.640;9.566;2022-07-18T09:47:37;3.92;;;1.23;;
38609;SDS011;24367;51.640;9.566;2022-07-18T09:50:20;5.93;;;1.45;;
38609;SDS011;24367;51.640;9.566;2022-07-18T09:53:01;5.78;;;1.38;;
38609;SDS011;24367;51.640;9.566;2022-07-18T09:55:33;5.30;;;1.27;;
38609;SDS011;24367;51.640;9.566;2022-07-18T09:58:01;9.82;;;1.52;;
38609;SDS011;24367;51.640;9.566;2022-07-18T10:00:29;7.20;;;1.30;;
38609;SDS011;24367;51.640;9.566;2022-07-18T10:02:57;4.65;;;1.27;;
38609;SDS011;24367;51.640;9.566;2022-07-18T10:05:27;4.22;;;1.20;;
38609;SDS011;24367;51.640;9.566;2022-07-18T10:07:54;5.15;;;1.40;;
38609;SDS011;24367;51.640;9.566;2022-07-18T10:10:22;5.53;;;1.20;;
38609;SDS011;24367;51.640;9.566;2022-07-18T10:12:50;5.20;;;1.30;;
38609;SDS011;24367;51.640;9.566;2022-07-18T10:15:19;5.03;;;1.45;;
38609;SDS011;24367;51.640;9.566;2022-07-18T10:17:47;4.05;;;1.20;;
38609;SDS011;24367;51.640;9.566;2022-07-18T10:20:13;6.40;;;1.33;;
38609;SDS011;24367;51.640;9.566;2022-07-18T10:22:42;3.97;;;1.33;;
38609;SDS011;24367;51.640;9.566;2022-07-18T10:25:09;5.45;;;1.52;;
38609;SDS011;24367;51.640;9.566;2022-07-18T10:27:49;3.85;;;1.30;;
38609;SDS011;24367;51.640;9.566;2022-07-18T10:30:17;5.07;;;1.50;;
38609;SDS011;24367;51.640;9.566;2022-07-18T10:32:44;3.53;;;1.27;;
38609;SDS011;24367;51.640;9.566;2022-07-18T10:35:11;2.92;;;1.13;;
38609;SDS011;24367;51.640;9.566;2022-07-18T10:37:42;6.15;;;1.40;;
38609;SDS011;24367;51.640;9.566;2022-07-18T10:40:22;4.93;;;1.20;;
38609;SDS011;24367;51.640;9.566;2022-07-18T10:45:55;4.43;;;1.03;;
38609;SDS011;24367;51.640;9.566;2022-07-18T10:51:14;4.40;;;1.30;;
38609;SDS011;24367;51.640;9.566;2022-07-18T10:53:56;5.20;;;1.33;;
38609;SDS011;24367;51.640;9.566;2022-07-18T10:59:23;3.65;;;1.10;;
38609;SDS011;24367;51.640;9.566;2022-07-18T11:01:51;2.53;;;1.30;;
38609;SDS011;24367;51.640;9.566;2022-07-18T11:04:22;3.97;;;1.15;;
38609;SDS011;24367;51.640;9.566;2022-07-18T11:06:52;3.75;;;1.40;;
38609;SDS011;24367;51.640;9.566;2022-07-18T11:09:34;4.65;;;1.23;;
38609;SDS011;24367;51.640;9.566;2022-07-18T11:12:22;5.20;;;1.20;;
38609;SDS011;24367;51.640;9.566;2022-07-18T11:15:09;2.58;;;1.02;;
38609;SDS011;24367;51.640;9.566;2022-07-18T11:20:24;3.25;;;1.30;;
38609;SDS011;24367;51.640;9.566;2022-07-18T11:22:52;4.20;;;1.27;;
38609;SDS011;24367;51.640;9.566;2022-07-18T11:25:22;2.47;;;1.23;;
38609;SDS011;24367;51.640;9.566;2022-07-18T11:27:50;2.97;;;1.30;;
38609;SDS011;24367;51.640;9.566;2022-07-18T11:30:17;3.67;;;1.50;;
38609;SDS011;24367;51.640;9.566;2022-07-18T11:32:46;2.30;;;0.95;;
38609;SDS011;24367;51.640;9.566;2022-07-18T11:35:12;3.50;;;1.20;;
38609;SDS011;24367;51.640;9.566;2022-07-18T11:37:39;6.03;;;1.33;;
38609;SDS011;24367;51.640;9.566;2022-07-18T11:40:13;2.70;;;1.23;;
38609;SDS011;24367;51.640;9.566;2022-07-18T11:42:41;3.10;;;1.10;;
38609;SDS011;24367;51.640;9.566;2022-07-18T11:45:09;3.15;;;1.08;;
38609;SDS011;24367;51.640;9.566;2022-07-18T11:47:40;3.67;;;1.02;;
38609;SDS011;24367;51.640;9.566;2022-07-18T11:50:11;2.78;;;0.95;;
38609;SDS011;24367;51.640;9.566;2022-07-18T11:52:38;2.13;;;1.00;;
38609;SDS011;24367;51.640;9.566;2022-07-18T11:55:05;3.28;;;1.13;;
38609;SDS011;24367;51.640;9.566;2022-07-18T11:57:32;2.33;;;1.02;;
38609;SDS011;24367;51.640;9.566;2022-07-18T12:00:01;1.42;;;0.82;;
38609;SDS011;24367;51.640;9.566;2022-07-18T12:02:40;2.15;;;1.00;;
38609;SDS011;24367;51.640;9.566;2022-07-18T12:05:07;4.43;;;1.30;;
38609;SDS011;24367;51.640;9.566;2022-07-18T12:07:34;3.22;;;1.08;;
38609;SDS011;24367;51.640;9.566;2022-07-18T12:10:14;3.80;;;0.93;;
38609;SDS011;24367;51.640;9.566;2022-07-18T12:12:40;3.28;;;1.05;;
38609;SDS011;24367;51.640;9.566;2022-07-18T12:15:09;2.35;;;1.10;;
38609;SDS011;24367;51.640;9.566;2022-07-18T12:17:42;4.07;;;1.70;;
38609;SDS011;24367;51.640;9.566;2022-07-18T12:20:10;4.55;;;1.38;;
38609;SDS011;24367;51.640;9.566;2022-07-18T12:25:54;2.50;;;1.00;;
38609;SDS011;24367;51.640;9.566;2022-07-18T12:28:25;6.53;;;1.58;;
38609;SDS011;24367;51.640;9.566;2022-07-18T12:30:53;3.47;;;1.50;;
38609;SDS011;24367;51.640;9.566;2022-07-18T12:33:20;3.28;;;1.38;;
38609;SDS011;24367;51.640;9.566;2022-07-18T12:35:53;3.00;;;1.30;;
38609;SDS011;24367;51.640;9.566;2022-07-18T12:40:48;4.32;;;1.55;;
38609;SDS011;24367;51.640;9.566;2022-07-18T12:43:21;3.60;;;1.25;;
38609;SDS011;24367;51.640;9.566;2022-07-18T12:45:49;2.75;;;1.20;;
38609;SDS011;24367;51.640;9.566;2022-07-18T12:48:17;4.45;;;1.20;;
38609;SDS011;24367;51.640;9.566;2022-07-18T12:50:44;3.90;;;1.13;;
38609;SDS011;24367;51.640;9.566;2022-07-18T12:53:11;3.85;;;1.67;;
38609;SDS011;24367;51.640;9.566;2022-07-18T12:55:38;4.70;;;1.30;;
38609;SDS011;24367;51.640;9.566;2022-07-18T12:58:05;6.55;;;1.40;;
38609;SDS011;24367;51.640;9.566;2022-07-18T13:00:32;2.70;;;1.23;;
38609;SDS011;24367;51.640;9.566;2022-07-18T13:02:59;2.22;;;0.95;;
38609;SDS011;24367;51.640;9.566;2022-07-18T13:05:28;2.92;;;1.02;;
38609;SDS011;24367;51.640;9.566;2022-07-18T13:07:55;3.33;;;1.40;;
38609;SDS011;24367;51.640;9.566;2022-07-18T13:10:22;3.97;;;0.98;;
38609;SDS011;24367;51.640;9.566;2022-07-18T13:12:48;3.30;;;1.23;;
38609;SDS011;24367;51.640;9.566;2022-07-18T13:15:15;3.05;;;1.20;;
38609;SDS011;24367;51.640;9.566;2022-07-18T13:17:43;4.00;;;1.23;;
38609;SDS011;24367;51.640;9.566;2022-07-18T13:20:10;4.18;;;1.20;;
38609;SDS011;24367;51.640;9.566;2022-07-18T13:22:38;4.35;;;1.50;;
38609;SDS011;24367;51.640;9.566;2022-07-18T13:25:05;4.57;;;1.33;;
38609;SDS011;24367;51.640;9.566;2022-07-18T13:27:33;7.57;;;1.33;;
38609;SDS011;24367;51.640;9.566;2022-07-18T13:29:59;3.28;;;1.50;;
38609;SDS011;24367;51.640;9.566;2022-07-18T13:32:27;4.88;;;1.30;;
38609;SDS011;24367;51.640;9.566;2022-07-18T13:34:53;7.05;;;1.88;;
38609;SDS011;24367;51.640;9.566;2022-07-18T13:37:20;7.85;;;1.88;;
38609;SDS011;24367;51.640;9.566;2022-07-18T13:39:48;11.55;;;1.73;;
38609;SDS011;24367;51.640;9.566;2022-07-18T13:42:14;9.55;;;2.22;;
38609;SDS011;24367;51.640;9.566;2022-07-18T13:44:41;9.75;;;1.88;;
38609;SDS011;24367;51.640;9.566;2022-07-18T13:47:10;10.10;;;1.67;;
38609;SDS011;24367;51.640;9.566;2022-07-18T13:49:36;15.50;;;2.08;;
38609;SDS011;24367;51.640;9.566;2022-07-18T13:52:03;12.05;;;2.03;;
38609;SDS011;24367;51.640;9.566;2022-07-18T13:54:30;12.23;;;2.40;;
38609;SDS011;24367;51.640;9.566;2022-07-18T13:56:58;13.35;;;3.13;;
38609;SDS011;24367;51.640;9.566;2022-07-18T13:59:24;14.23;;;2.63;;
38609;SDS011;24367;51.640;9.566;2022-07-18T14:01:51;8.00;;;1.75;;
38609;SDS011;24367;51.640;9.566;2022-07-18T14:04:17;10.65;;;1.85;;
38609;SDS011;24367;51.640;9.566;2022-07-18T14:06:44;10.63;;;1.70;;
38609;SDS011;24367;51.640;9.566;2022-07-18T14:09:11;10.23;;;1.77;;
38609;SDS011;24367;51.640;9.566;2022-07-18T14:11:38;6.85;;;1.50;;
38609;SDS011;24367;51.640;9.566;2022-07-18T14:14:05;16.10;;;2.13;;
38609;SDS011;24367;51.640;9.566;2022-07-18T14:16:32;8.98;;;1.83;;
38609;SDS011;24367;51.640;9.566;2022-07-18T14:18:59;15.32;;;2.40;;
38609;SDS011;24367;51.640;9.566;2022-07-18T14:21:25;8.45;;;2.20;;
38609;SDS011;24367;51.640;9.566;2022-07-18T14:23:52;7.35;;;1.83;;
38609;SDS011;24367;51.640;9.566;2022-07-18T14:26:19;12.77;;;2.03;;
38609;SDS011;24367;51.640;9.566;2022-07-18T14:28:45;8.38;;;2.03;;
38609;SDS011;24367;51.640;9.566;2022-07-18T14:31:13;7.03;;;1.60;;
38609;SDS011;24367;51.640;9.566;2022-07-18T14:33:40;19.05;;;2.00;;
38609;SDS011;24367;51.640;9.566;2022-07-18T14:36:06;11.75;;;1.83;;
38609;SDS011;24367;51.640;9.566;2022-07-18T14:38:33;11.82;;;2.00;;
38609;SDS011;24367;51.640;9.566;2022-07-18T14:40:59;10.02;;;1.75;;
38609;SDS011;24367;51.640;9.566;2022-07-18T14:43:25;9.85;;;1.88;;
38609;SDS011;24367;51.640;9.566;2022-07-18T14:45:52;8.35;;;2.00;;
38609;SDS011;24367;51.640;9.566;2022-07-18T14:48:20;7.25;;;1.83;;
38609;SDS011;24367;51.640;9.566;2022-07-18T14:50:46;9.73;;;2.50;;
38609;SDS011;24367;51.640;9.566;2022-07-18T14:53:13;7.40;;;2.05;;
38609;SDS011;24367;51.640;9.566;2022-07-18T14:55:39;6.75;;;1.63;;
38609;SDS011;24367;51.640;9.566;2022-07-18T14:58:06;6.55;;;1.95;;
38609;SDS011;24367;51.640;9.566;2022-07-18T15:00:33;7.10;;;2.00;;
38609;SDS011;24367;51.640;9.566;2022-07-18T15:03:00;8.23;;;1.77;;
38609;SDS011;24367;51.640;9.566;2022-07-18T15:05:27;5.47;;;1.55;;
38609;SDS011;24367;51.640;9.566;2022-07-18T15:07:54;9.25;;;1.60;;
38609;SDS011;24367;51.640;9.566;2022-07-18T15:10:20;7.03;;;1.80;;